Time;durP1;ratioP1;P1;durP2;ratioP2;P2;SDS_P1;SDS_P2;PMS_P1;PMS_P2;Temp;Humidity;BMP_temperature;BMP_pressure;BME280_temperature;BME280_humidity;BME280_pressure;Samples;Min_cycle;Max_cycle;Signal;HPM_P1;HPM_P2
2022/08/16 00:01:56;;;;;;;30.80;9.40;;;;;;;23.62;58.48;99854.52;1749994;82;20905;-43
2022/08/16 00:04:23;;;;;;;40.63;9.75;;;;;;;23.57;59.13;99863.31;1749915;82;21383;-42
2022/08/16 00:06:50;;;;;;;29.25;8.88;;;;;;;23.52;59.63;99868.15;1749984;82;21131;-42
2022/08/16 00:09:17;;;;;;;35.08;8.80;;;;;;;23.48;59.90;99871.52;1749776;82;20896;-42
2022/08/16 00:11:44;;;;;;;32.65;8.00;;;;;;;23.44;60.14;99876.70;1749759;82;21023;-42
2022/08/16 00:14:14;;;;;;;22.50;8.85;;;;;;;23.39;60.36;99873.59;1749902;82;21039;-42
2022/08/16 00:16:41;;;;;;;22.93;8.33;;;;;;;23.37;60.36;99871.57;1750002;82;20916;-42
2022/08/16 00:19:07;;;;;;;16.45;8.45;;;;;;;23.37;60.48;99874.21;1749873;82;21272;-42
2022/08/16 00:21:34;;;;;;;22.07;8.45;;;;;;;23.35;60.52;99877.42;1749867;82;20932;-42
2022/08/16 00:24:01;;;;;;;20.62;7.75;;;;;;;23.35;60.24;99869.04;1723021;82;20992;-42
2022/08/16 00:26:28;;;;;;;23.05;7.83;;;;;;;23.39;60.03;99872.28;1698747;82;21522;-42
2022/08/16 00:28:55;;;;;;;28.35;8.40;;;;;;;23.39;60.12;99872.28;1749763;82;21549;-42
2022/08/16 00:31:22;;;;;;;19.37;7.85;;;;;;;23.37;60.38;99875.03;1740329;81;21115;-43
2022/08/16 00:33:49;;;;;;;17.05;7.65;;;;;;;23.34;60.27;99879.25;1735825;82;20992;-42
2022/08/16 00:36:16;;;;;;;31.33;8.35;;;;;;;23.31;60.69;99887.89;1735972;82;20961;-42
2022/08/16 00:38:43;;;;;;;17.90;7.53;;;;;;;23.27;60.73;99891.74;1715380;82;20941;-43
2022/08/16 00:41:10;;;;;;;23.80;7.42;;;;;;;23.22;61.21;99894.25;1735847;82;21011;-42
2022/08/16 00:43:37;;;;;;;21.62;7.90;;;;;;;23.17;61.67;99899.06;1735934;82;21320;-42
2022/08/16 00:46:15;;;;;;;33.10;9.00;;;;;;;23.12;61.87;99895.97;1735994;82;20913;-42
2022/08/16 00:48:44;;;;;;;18.32;7.55;;;;;;;23.09;62.59;99899.67;1735683;82;20957;-42
2022/08/16 00:51:13;;;;;;;26.17;7.53;;;;;;;23.06;62.88;99893.80;1736118;82;21412;-42
2022/08/16 00:53:39;;;;;;;34.40;8.35;;;;;;;23.04;63.07;99894.40;1735982;82;20842;-42
2022/08/16 00:56:10;;;;;;;27.20;8.08;;;;;;;23.04;63.34;99898.36;1735930;82;21243;-42
2022/08/16 00:58:42;;;;;;;18.30;7.67;;;;;;;23.03;63.78;99901.96;1735946;82;20886;-42
2022/08/16 01:01:09;;;;;;;29.32;8.30;;;;;;;23.00;64.17;99892.50;1736006;81;20953;-42
2022/08/16 01:03:37;;;;;;;21.77;7.78;;;;;;;22.96;64.75;99903.77;1735715;81;20984;-42
2022/08/16 01:06:05;;;;;;;27.73;7.28;;;;;;;22.92;65.12;99906.30;1736017;81;21021;-42
2022/08/16 01:08:34;;;;;;;25.60;8.33;;;;;;;22.88;65.35;99906.19;1736098;82;21152;-42
2022/08/16 01:11:01;;;;;;;24.55;7.47;;;;;;;22.87;65.66;99917.70;1735946;82;20898;-42
2022/08/16 01:13:31;;;;;;;27.37;7.80;;;;;;;22.86;65.97;99914.71;1735921;82;21191;-42
2022/08/16 01:16:13;;;;;;;25.50;8.38;;;;;;;22.84;66.19;99919.23;1735899;82;20964;-42
2022/08/16 01:18:48;;;;;;;25.80;8.30;;;;;;;22.82;66.72;99919.84;1704474;84;21011;-42
2022/08/16 01:21:46;;;;;;;27.35;8.00;;;;;;;22.80;66.86;99925.72;1695834;84;21219;-42
2022/08/16 01:24:30;;;;;;;31.85;8.23;;;;;;;22.81;67.50;99944.55;1695744;83;21015;-42
2022/08/16 01:27:05;;;;;;;38.80;8.63;;;;;;;22.82;68.40;99966.01;1666001;84;21014;-42
2022/08/16 01:29:46;;;;;;;23.57;8.78;;;;;;;22.85;68.72;99969.72;1695869;83;20980;-42
2022/08/16 01:32:13;;;;;;;34.35;9.40;;;;;;;22.94;69.05;99966.38;1682773;84;20967;-42
2022/08/16 01:34:40;;;;;;;35.80;9.15;;;;;;;23.05;69.43;99949.71;1666208;84;21241;-42
2022/08/16 01:37:09;;;;;;;32.83;9.38;;;;;;;23.15;69.53;99948.50;1695843;84;20964;-43
2022/08/16 01:39:36;;;;;;;33.23;8.98;;;;;;;23.22;69.64;99935.16;1643779;84;21011;-42
2022/08/16 01:42:06;;;;;;;30.27;8.58;;;;;;;23.28;69.84;99933.88;1695927;84;20964;-42
2022/08/16 01:44:34;;;;;;;26.05;8.55;;;;;;;23.33;70.00;99933.02;1666454;84;21422;-42
2022/08/16 01:47:01;;;;;;;40.48;9.35;;;;;;;23.37;70.11;99929.16;1696004;84;21238;-43
2022/08/16 01:49:37;;;;;;;48.33;9.93;;;;;;;23.41;70.38;99930.23;1696030;84;20985;-42
2022/08/16 01:52:10;;;;;;;37.63;9.00;;;;;;;23.43;70.74;99925.19;1666223;84;20968;-42
2022/08/16 01:54:39;;;;;;;27.95;9.68;;;;;;;23.44;70.89;99918.94;1694198;84;20937;-42
2022/08/16 01:57:06;;;;;;;42.78;10.35;;;;;;;23.42;71.23;99922.19;1695891;84;20928;-42
2022/08/16 01:59:34;;;;;;;46.48;9.35;;;;;;;23.39;71.80;99915.84;1695864;84;22067;-42
2022/08/16 02:02:01;;;;;;;34.53;9.48;;;;;;;23.34;72.20;99912.71;1695740;84;20964;-42
2022/08/16 02:04:29;;;;;;;29.30;9.28;;;;;;;23.28;72.77;99900.02;1695749;84;20928;-42
2022/08/16 02:06:56;;;;;;;38.35;9.10;;;;;;;23.21;73.34;99904.91;1695943;84;21019;-42
2022/08/16 02:09:24;;;;;;;26.27;8.48;;;;;;;23.16;74.04;99912.38;1695909;84;21471;-42
2022/08/16 02:11:56;;;;;;;31.65;8.08;;;;;;;23.09;74.95;99908.91;1695751;84;21249;-42
2022/08/16 02:14:26;;;;;;;23.62;8.93;;;;;;;23.05;75.45;99896.08;1696046;84;20945;-42
2022/08/16 02:16:56;;;;;;;25.97;7.90;;;;;;;23.01;75.94;99909.16;1695795;84;20980;-42
2022/08/16 02:19:24;;;;;;;28.20;7.62;;;;;;;22.98;77.19;99921.28;1696046;84;20956;-42
2022/08/16 02:21:52;;;;;;;13.62;7.12;;;;;;;22.91;77.94;99924.41;1666248;84;20965;-42
2022/08/16 02:24:21;;;;;;;28.62;8.05;;;;;;;22.87;79.27;99937.49;1695739;83;21088;-43
2022/08/16 02:26:48;;;;;;;29.57;8.23;;;;;;;22.86;80.06;99946.84;1695767;84;21577;-42
2022/08/16 02:29:17;;;;;;;22.87;7.37;;;;;;;22.84;80.58;99948.75;1695943;84;21054;-42
2022/08/16 02:31:45;;;;;;;23.20;7.33;;;;;;;22.84;80.84;99936.89;1666375;84;21609;-42
2022/08/16 02:34:12;;;;;;;26.05;7.80;;;;;;;22.83;81.61;99941.31;1702909;84;20888;-42
2022/08/16 02:36:41;;;;;;;21.90;7.92;;;;;;;22.82;81.44;99939.63;1693534;84;21522;-42
2022/08/16 02:39:09;;;;;;;20.23;7.30;;;;;;;22.85;81.76;99938.06;1702784;84;20943;-42
2022/08/16 02:41:37;;;;;;;26.93;7.67;;;;;;;22.85;81.84;99943.34;1693201;84;20980;-42
2022/08/16 02:46:55;;;;;;;29.20;9.93;;;;;;;22.87;82.13;99933.53;1798503;79;22716;-42
2022/08/16 02:49:22;;;;;;;26.12;8.45;;;;;;;22.82;82.27;99943.13;1758028;80;20928;-42
2022/08/16 02:51:49;;;;;;;32.90;8.65;;;;;;;22.81;82.45;99947.19;1708025;83;21042;-42
2022/08/16 02:54:16;;;;;;;31.60;9.30;;;;;;;22.80;82.95;99941.55;1724450;83;20884;-42
2022/08/16 02:56:45;;;;;;;32.50;8.68;;;;;;;22.76;83.19;99944.08;1724568;83;20928;-41
2022/08/16 02:59:12;;;;;;;33.20;8.38;;;;;;;22.71;83.49;99942.28;1724765;83;21087;-41
2022/08/16 03:01:40;;;;;;;29.63;7.80;;;;;;;22.70;83.77;99941.42;1724545;83;20920;-42
2022/08/16 03:04:15;;;;;;;23.87;7.65;;;;;;;22.67;83.99;99947.80;1724374;83;21301;-42
2022/08/16 03:06:42;;;;;;;24.02;7.55;;;;;;;22.67;84.51;99954.86;1724692;83;21371;-42
2022/08/16 03:09:10;;;;;;;23.95;7.80;;;;;;;22.66;84.67;99958.45;1723902;83;21445;-42
2022/08/16 03:11:38;;;;;;;16.65;6.80;;;;;;;22.65;84.72;99970.81;1724583;83;21042;-43
2022/08/16 03:14:05;;;;;;;37.65;7.17;;;;;;;22.66;84.91;99972.49;1724651;83;20888;-42
2022/08/16 03:16:32;;;;;;;25.08;6.65;;;;;;;22.67;85.01;99976.81;1724467;83;21225;-42
2022/08/16 03:18:59;;;;;;;24.85;7.58;;;;;;;22.68;85.02;99970.58;1724423;83;21007;-42
2022/08/16 03:21:27;;;;;;;19.17;6.90;;;;;;;22.70;85.01;99965.16;1724572;83;20990;-42
2022/08/16 03:23:54;;;;;;;24.18;6.70;;;;;;;22.71;85.14;99967.34;1724432;83;21485;-42
2022/08/16 03:26:21;;;;;;;16.50;6.30;;;;;;;22.71;85.18;99967.34;1724595;83;20983;-41
2022/08/16 03:28:48;;;;;;;17.80;6.78;;;;;;;22.73;85.20;99978.61;1707908;83;21220;-42
2022/08/16 03:31:16;;;;;;;11.40;6.33;;;;;;;22.77;85.33;99976.08;1724677;81;20990;-42
2022/08/16 03:33:43;;;;;;;26.42;7.20;;;;;;;22.80;84.85;99975.84;1724522;83;20868;-42
2022/08/16 03:36:10;;;;;;;19.75;6.87;;;;;;;22.84;84.89;99975.95;1724451;83;21461;-42
2022/08/16 03:38:38;;;;;;;14.47;6.70;;;;;;;22.85;84.79;99985.55;1724324;81;21390;-42
2022/08/16 03:41:07;;;;;;;17.73;6.85;;;;;;;22.87;84.82;99981.48;1720555;83;21162;-42
2022/08/16 03:43:35;;;;;;;12.88;6.40;;;;;;;22.89;84.45;99992.76;1698430;84;21007;-42
2022/08/16 03:46:02;;;;;;;11.50;6.55;;;;;;;22.91;84.59;99990.84;1719352;82;20924;-42
2022/08/16 03:48:33;;;;;;;19.57;7.15;;;;;;;22.93;84.23;99987.59;1693336;84;20982;-42
2022/08/16 03:51:03;;;;;;;18.73;6.92;;;;;;;22.95;82.44;99988.31;1693555;84;20920;-42
2022/08/16 03:53:32;;;;;;;18.07;6.37;;;;;;;22.98;82.06;99986.75;1666703;84;21036;-43
2022/08/16 03:56:00;;;;;;;19.12;7.20;;;;;;;23.01;80.01;99985.69;1722156;82;20955;-42
2022/08/16 03:58:27;;;;;;;16.77;6.78;;;;;;;23.01;78.85;99983.05;1692856;83;20951;-43
2022/08/16 04:00:54;;;;;;;16.87;7.03;;;;;;;23.00;78.87;99990.14;1692771;84;20907;-43
2022/08/16 04:03:21;;;;;;;20.40;7.87;;;;;;;22.98;79.04;100014.95;1721780;82;20907;-43
2022/08/16 04:05:49;;;;;;;21.75;6.35;;;;;;;22.94;79.00;100056.09;1721719;83;21218;-43
2022/08/16 04:08:20;;;;;;;19.07;6.60;;;;;;;22.90;79.96;100090.73;1667432;84;20943;-43
2022/08/16 04:10:53;;;;;;;37.05;6.90;;;;;;;22.82;80.83;100117.23;1692663;83;20982;-43
2022/08/16 04:13:20;;;;;;;31.85;7.42;;;;;;;22.72;84.49;100149.70;1691162;84;20919;-44
2022/08/16 04:15:47;;;;;;;25.48;8.60;;;;;;;22.48;91.32;100203.29;1721648;83;20935;-45
2022/08/16 04:18:16;;;;;;;26.75;8.38;;;;;;;21.90;100.00;100224.92;1692556;83;21396;-44
2022/08/16 04:20:44;;;;;;;36.30;8.10;;;;;;;21.22;100.00;100243.03;1692716;84;20892;-44
2022/08/16 04:23:11;;;;;;;25.77;7.58;;;;;;;20.66;100.00;100246.62;1721576;83;21485;-45
2022/08/16 04:25:39;;;;;;;20.52;8.03;;;;;;;20.20;100.00;100237.22;1721519;83;20868;-44
2022/08/16 04:28:07;;;;;;;21.35;6.92;;;;;;;19.85;100.00;100234.14;1692851;84;20970;-45
2022/08/16 04:30:34;;;;;;;26.97;6.70;;;;;;;19.55;100.00;100228.46;1692862;84;21237;-45
2022/08/16 04:33:02;;;;;;;16.60;6.00;;;;;;;19.34;100.00;100224.89;1692646;84;20935;-45
2022/08/16 04:35:30;;;;;;;14.45;5.05;;;;;;;19.19;100.00;100201.23;1665592;84;20972;-45
2022/08/16 04:37:57;;;;;;;20.43;5.45;;;;;;;19.05;100.00;100199.87;1721517;83;20891;-45
2022/08/16 04:40:26;;;;;;;21.95;5.05;;;;;;;18.89;100.00;100186.31;1692498;84;21524;-45
2022/08/16 04:42:54;;;;;;;14.50;4.78;;;;;;;18.75;100.00;100171.84;1693187;84;21233;-45
2022/08/16 04:45:23;;;;;;;18.15;4.50;;;;;;;18.66;100.00;100171.89;1721642;83;21015;-45
2022/08/16 04:47:50;;;;;;;23.40;4.22;;;;;;;18.58;100.00;100156.63;1695233;83;21006;-45
2022/08/16 04:50:21;;;;;;;11.38;4.62;;;;;;;18.54;100.00;100159.02;1692895;84;21093;-45
2022/08/16 04:52:53;;;;;;;9.88;4.47;;;;;;;18.47;100.00;100148.06;1684240;84;20943;-45
2022/08/16 04:55:23;;;;;;;14.93;4.35;;;;;;;18.45;100.00;100149.06;1692750;84;22180;-45
2022/08/16 04:57:52;;;;;;;13.90;5.00;;;;;;;18.38;100.00;100146.80;1692588;84;21552;-45
2022/08/16 05:00:23;;;;;;;27.05;4.65;;;;;;;18.37;100.00;100146.42;1692869;84;20971;-45
2022/08/16 05:02:51;;;;;;;13.30;4.58;;;;;;;18.34;100.00;100140.05;1692977;84;20999;-45
2022/08/16 05:05:18;;;;;;;14.00;4.78;;;;;;;18.33;100.00;100133.56;1694754;83;20987;-45
2022/08/16 05:07:49;;;;;;;11.75;5.35;;;;;;;18.32;100.00;100144.98;1695112;83;21129;-45
2022/08/16 05:10:16;;;;;;;21.75;4.95;;;;;;;18.30;100.00;100134.57;1666912;84;21615;-45
2022/08/16 05:12:43;;;;;;;16.00;4.90;;;;;;;18.30;100.00;100146.36;1692686;84;21002;-45
2022/08/16 05:15:10;;;;;;;12.37;4.50;;;;;;;18.30;100.00;100137.19;1692693;84;20900;-45
2022/08/16 05:17:37;;;;;;;20.57;5.03;;;;;;;18.32;100.00;100141.05;1692646;83;20947;-45
2022/08/16 05:20:08;;;;;;;14.40;4.35;;;;;;;18.33;100.00;100147.97;1692577;84;21163;-45
2022/08/16 05:22:38;;;;;;;14.47;5.40;;;;;;;18.35;100.00;100140.42;1692487;84;21410;-45
2022/08/16 05:25:07;;;;;;;16.73;4.62;;;;;;;18.37;100.00;100145.11;1692921;84;20954;-45
2022/08/16 05:27:34;;;;;;;17.48;4.78;;;;;;;18.38;100.00;100132.39;1688806;84;20963;-45
2022/08/16 05:30:01;;;;;;;14.25;5.42;;;;;;;18.37;100.00;100133.32;1695365;83;21460;-45
2022/08/16 05:32:28;;;;;;;19.87;5.03;;;;;;;18.37;100.00;100136.39;1692846;84;21251;-45
2022/08/16 05:34:55;;;;;;;17.48;5.10;;;;;;;18.37;100.00;100137.25;1692597;83;21572;-45
2022/08/16 05:37:23;;;;;;;17.00;5.50;;;;;;;18.38;100.00;100144.17;1692732;84;20879;-45
2022/08/16 05:39:50;;;;;;;20.32;6.15;;;;;;;18.38;100.00;100151.17;1692800;83;21003;-45
2022/08/16 05:42:17;;;;;;;19.60;6.08;;;;;;;18.40;100.00;100141.45;1692818;84;20983;-45
2022/08/16 05:44:44;;;;;;;25.70;6.42;;;;;;;18.47;100.00;100141.95;1692685;84;21069;-45
2022/08/16 05:59:31;;;;;;;31.00;7.35;;;;;;;18.57;100.00;100143.59;1669585;84;21054;-45
2022/08/16 06:01:59;;;;;;;25.52;6.87;;;;;;;18.58;100.00;100139.59;1686574;83;21545;-45
2022/08/16 06:04:30;;;;;;;23.62;7.08;;;;;;;18.63;100.00;100131.44;1692506;84;20985;-45
2022/08/16 06:06:58;;;;;;;21.07;6.67;;;;;;;18.69;100.00;100123.22;1692601;83;21002;-46
2022/08/16 06:09:27;;;;;;;22.35;6.00;;;;;;;18.78;100.00;100127.09;1692551;84;20884;-45
2022/08/16 06:11:54;;;;;;;20.72;6.70;;;;;;;18.86;100.00;100132.75;1692549;84;21086;-45
2022/08/16 06:14:21;;;;;;;27.37;6.15;;;;;;;18.95;100.00;100130.89;1692872;84;20990;-45
2022/08/16 06:16:48;;;;;;;21.75;6.10;;;;;;;19.03;100.00;100134.41;1692660;83;20986;-45
2022/08/16 06:19:15;;;;;;;22.90;6.10;;;;;;;19.11;100.00;100133.96;1692758;84;20959;-45
2022/08/16 06:21:44;;;;;;;22.67;6.22;;;;;;;19.19;100.00;100136.10;1692231;84;20931;-45
2022/08/16 06:24:12;;;;;;;22.25;5.95;;;;;;;19.23;100.00;100145.02;1692719;84;21268;-45
2022/08/16 06:26:39;;;;;;;22.05;5.78;;;;;;;19.27;100.00;100144.38;1692685;84;21013;-45
2022/08/16 06:29:07;;;;;;;19.65;5.97;;;;;;;19.29;100.00;100156.93;1692784;83;20899;-45
2022/08/16 06:31:36;;;;;;;17.57;6.05;;;;;;;19.31;100.00;100165.55;1692705;84;20920;-45
2022/08/16 06:34:04;;;;;;;19.52;5.87;;;;;;;19.34;100.00;100168.47;1692821;84;20951;-45
2022/08/16 06:36:33;;;;;;;15.00;5.58;;;;;;;19.38;100.00;100183.09;1692688;84;22363;-45
2022/08/16 06:39:01;;;;;;;17.32;5.62;;;;;;;19.42;100.00;100183.73;1691508;84;20950;-45
2022/08/16 06:41:36;;;;;;;15.43;5.22;;;;;;;19.47;100.00;100181.70;1690059;84;20947;-45
2022/08/16 06:44:04;;;;;;;13.55;5.05;;;;;;;19.52;100.00;100171.28;1692333;84;20963;-45
2022/08/16 06:46:35;;;;;;;15.15;5.60;;;;;;;19.61;100.00;100175.13;1686699;83;20948;-45
2022/08/16 06:49:07;;;;;;;21.15;5.58;;;;;;;19.67;100.00;100180.48;1671992;85;21907;-45
2022/08/16 06:51:35;;;;;;;17.37;4.62;;;;;;;19.75;100.00;100172.14;1672623;85;20964;-45
2022/08/16 06:54:03;;;;;;;16.57;5.45;;;;;;;19.87;100.00;100165.29;1672482;85;21502;-45
2022/08/16 06:56:30;;;;;;;14.18;5.10;;;;;;;19.94;100.00;100166.62;1652980;85;20960;-45
2022/08/16 06:58:59;;;;;;;21.40;5.92;;;;;;;20.04;100.00;100173.45;1671277;84;20943;-45
2022/08/16 07:01:29;;;;;;;23.60;5.47;;;;;;;20.14;100.00;100169.78;1672311;85;21125;-45
2022/08/16 07:03:56;;;;;;;17.17;5.20;;;;;;;20.24;100.00;100171.73;1672477;84;20995;-45
2022/08/16 07:06:23;;;;;;;17.85;5.72;;;;;;;20.34;100.00;100161.48;1672314;85;20948;-45
2022/08/16 07:08:51;;;;;;;19.30;5.95;;;;;;;20.44;100.00;100152.50;1672470;85;20956;-45
2022/08/16 07:11:19;;;;;;;12.10;5.42;;;;;;;20.59;100.00;100145.89;1672478;85;20908;-46
2022/08/16 07:13:48;;;;;;;19.20;5.85;;;;;;;20.72;100.00;100124.43;1672621;85;21521;-45
2022/08/16 07:16:15;;;;;;;14.23;5.67;;;;;;;20.85;100.00;100115.28;1672427;85;20881;-45
2022/08/16 07:18:44;;;;;;;17.23;5.00;;;;;;;20.97;100.00;100112.30;1672431;85;21043;-46
2022/08/16 07:21:12;;;;;;;19.10;5.90;;;;;;;21.06;100.00;100106.39;1672512;85;20904;-45
2022/08/16 07:23:40;;;;;;;22.42;5.90;;;;;;;21.17;100.00;100105.66;1672579;85;21000;-45
2022/08/16 07:26:12;;;;;;;14.90;6.03;;;;;;;21.24;100.00;100105.59;1672518;85;21203;-46
2022/08/16 07:28:40;;;;;;;13.98;6.60;;;;;;;21.32;100.00;100109.48;1654070;85;20948;-45
2022/08/16 07:31:07;;;;;;;22.10;6.33;;;;;;;21.38;100.00;100113.03;1672589;85;20956;-45
2022/08/16 07:33:36;;;;;;;20.50;6.72;;;;;;;21.38;100.00;100115.66;1672468;85;20987;-45
2022/08/16 07:36:06;;;;;;;19.80;7.53;;;;;;;21.37;100.00;100128.45;1672530;85;21585;-45
2022/08/16 07:38:34;;;;;;;27.48;8.15;;;;;;;21.39;100.00;100128.70;1672518;84;21030;-46
2022/08/16 07:41:02;;;;;;;20.52;8.18;;;;;;;21.45;100.00;100131.84;1651138;85;21469;-46
2022/08/16 07:43:30;;;;;;;24.87;9.20;;;;;;;21.50;100.00;100131.08;1672833;85;21077;-45
2022/08/16 07:45:59;;;;;;;16.37;8.40;;;;;;;21.53;100.00;100130.37;1672602;85;20996;-45
2022/08/16 07:48:26;;;;;;;24.92;8.40;;;;;;;21.57;100.00;100132.33;1657301;85;20963;-45
2022/08/16 07:50:53;;;;;;;23.52;9.00;;;;;;;21.61;100.00;100127.20;1683035;84;21235;-45
2022/08/16 07:53:20;;;;;;;27.10;9.53;;;;;;;21.66;100.00;100127.75;1683078;85;20904;-46
2022/08/16 07:55:48;;;;;;;24.35;8.98;;;;;;;21.74;100.00;100137.75;1683221;85;20981;-45
2022/08/16 07:58:17;;;;;;;22.67;7.85;;;;;;;21.84;100.00;100134.45;1682404;85;21518;-45
2022/08/16 08:00:44;;;;;;;14.65;8.10;;;;;;;22.00;100.00;100146.91;1683237;84;20954;-45
2022/08/16 08:03:11;;;;;;;26.75;8.75;;;;;;;22.13;100.00;100150.82;1683170;85;21092;-45
2022/08/16 08:05:39;;;;;;;19.32;7.87;;;;;;;22.26;100.00;100149.45;1720018;83;20909;-45
2022/08/16 08:08:07;;;;;;;15.75;8.03;;;;;;;22.38;100.00;100146.41;1657614;85;20975;-46
2022/08/16 08:10:35;;;;;;;19.32;8.05;;;;;;;22.46;100.00;100151.12;1683498;84;20923;-46
2022/08/16 08:13:04;;;;;;;20.52;8.48;;;;;;;22.46;100.00;100152.44;1683257;84;20907;-46
2022/08/16 08:15:31;;;;;;;14.33;8.13;;;;;;;22.49;100.00;100150.92;1720236;83;21243;-46
2022/08/16 08:18:00;;;;;;;15.38;8.70;;;;;;;22.55;100.00;100150.46;1683005;85;20951;-46
2022/08/16 08:20:29;;;;;;;21.62;9.60;;;;;;;22.60;100.00;100144.85;1683289;85;20979;-46
2022/08/16 08:22:58;;;;;;;18.80;8.85;;;;;;;22.63;100.00;100142.84;1683480;84;21295;-46
2022/08/16 08:25:26;;;;;;;15.80;8.65;;;;;;;22.64;100.00;100147.62;1720224;83;20861;-46
2022/08/16 08:27:53;;;;;;;16.40;8.83;;;;;;;22.63;100.00;100141.98;1720017;83;21291;-46
2022/08/16 08:30:22;;;;;;;18.98;8.90;;;;;;;22.62;100.00;100147.75;1720106;82;20929;-46
2022/08/16 08:32:50;;;;;;;15.15;8.18;;;;;;;22.60;100.00;100154.09;1670025;83;21003;-46
2022/08/16 08:35:18;;;;;;;12.90;8.25;;;;;;;22.56;100.00;100160.05;1720159;83;21486;-46
2022/08/16 08:37:45;;;;;;;18.07;8.05;;;;;;;22.57;100.00;100163.05;1683350;83;21446;-46
2022/08/16 08:40:13;;;;;;;17.95;8.83;;;;;;;22.63;100.00;100169.68;1720089;83;21148;-46
2022/08/16 08:42:43;;;;;;;22.27;9.18;;;;;;;22.68;100.00;100163.12;1720084;83;20944;-46
2022/08/16 08:45:11;;;;;;;16.05;8.60;;;;;;;22.85;100.00;100165.45;1683122;85;20944;-46
2022/08/16 08:47:39;;;;;;;19.50;9.08;;;;;;;23.02;100.00;100166.34;1677814;84;21027;-46
2022/08/16 08:50:08;;;;;;;16.77;8.25;;;;;;;23.12;100.00;100163.85;1672501;85;20913;-46
2022/08/16 08:52:36;;;;;;;22.40;9.00;;;;;;;23.30;100.00;100164.27;1672941;85;21772;-46
2022/08/16 08:55:07;;;;;;;14.93;7.78;;;;;;;23.50;100.00;100158.75;1672598;85;20976;-46
2022/08/16 08:57:34;;;;;;;18.40;8.43;;;;;;;23.67;100.00;100156.61;1653248;85;21565;-46
2022/08/16 09:00:23;;;;;;;13.05;8.25;;;;;;;23.77;100.00;100157.55;1629703;87;20905;-45
2022/08/16 09:02:51;;;;;;;21.27;9.05;;;;;;;23.99;100.00;100176.98;1629709;88;20996;-45
2022/08/16 09:05:20;;;;;;;27.10;9.53;;;;;;;24.14;100.00;100183.37;1645448;85;21392;-45
2022/08/16 09:07:48;;;;;;;35.92;10.80;;;;;;;24.20;100.00;100195.59;1672495;85;20947;-46
2022/08/16 09:10:15;;;;;;;58.63;11.40;;;;;;;24.17;100.00;100202.45;1672697;85;20964;-45
2022/08/16 09:12:45;;;;;;;45.63;10.25;;;;;;;24.02;100.00;100197.91;1643827;87;21023;-45
2022/08/16 09:15:14;;;;;;;48.78;10.38;;;;;;;23.85;100.00;100197.05;1671996;85;20951;-45
2022/08/16 09:17:43;;;;;;;47.25;9.95;;;;;;;23.66;100.00;100207.76;1672526;85;21821;-45
2022/08/16 09:20:12;;;;;;;25.20;8.55;;;;;;;23.53;100.00;100212.66;1672546;85;21442;-45
2022/08/16 09:22:40;;;;;;;19.48;9.43;;;;;;;23.38;100.00;100204.11;1672536;85;20909;-45
2022/08/16 09:25:08;;;;;;;22.70;9.08;;;;;;;23.28;100.00;100211.53;1672742;85;21019;-45
2022/08/16 09:27:36;;;;;;;17.50;7.75;;;;;;;23.29;100.00;100213.21;1672393;85;21059;-45
2022/08/16 09:30:05;;;;;;;18.23;7.92;;;;;;;23.19;100.00;100207.76;1653041;85;21248;-45
2022/08/16 09:32:32;;;;;;;19.87;8.23;;;;;;;23.10;100.00;100212.78;1672755;85;21016;-45
2022/08/16 09:35:00;;;;;;;26.37;8.28;;;;;;;23.05;100.00;100216.72;1672581;85;20959;-45
2022/08/16 09:37:29;;;;;;;12.85;7.90;;;;;;;23.01;100.00;100215.27;1672475;85;20940;-45
2022/08/16 09:39:57;;;;;;;25.48;9.65;;;;;;;22.95;100.00;100209.50;1672468;85;20943;-45
2022/08/16 09:42:25;;;;;;;14.43;7.55;;;;;;;22.90;100.00;100215.60;1672614;85;21283;-46
2022/08/16 09:44:52;;;;;;;16.60;7.87;;;;;;;22.80;100.00;100222.50;1672411;85;21528;-45
2022/08/16 09:47:20;;;;;;;18.35;8.05;;;;;;;22.71;100.00;100227.14;1676845;84;20994;-45
2022/08/16 09:49:48;;;;;;;14.90;7.87;;;;;;;22.60;100.00;100234.03;1692870;84;21437;-45
2022/08/16 09:52:15;;;;;;;21.95;8.48;;;;;;;22.58;100.00;100229.34;1692791;84;20871;-45
2022/08/16 09:54:43;;;;;;;17.42;7.75;;;;;;;22.53;100.00;100233.66;1692704;83;21073;-45
2022/08/16 09:57:10;;;;;;;22.42;8.30;;;;;;;22.49;100.00;100232.66;1692646;83;20978;-45
2022/08/16 09:59:37;;;;;;;16.12;7.83;;;;;;;22.43;100.00;100227.31;1666794;84;20963;-45
2022/08/16 10:02:04;;;;;;;16.15;7.78;;;;;;;22.39;100.00;100230.67;1692588;84;21007;-45
2022/08/16 10:04:31;;;;;;;19.02;7.75;;;;;;;22.33;100.00;100233.72;1692734;83;20911;-44
2022/08/16 10:06:59;;;;;;;17.20;7.15;;;;;;;22.29;100.00;100234.07;1692743;84;21144;-45
2022/08/16 10:09:27;;;;;;;19.82;7.42;;;;;;;22.30;100.00;100239.22;1692746;84;20867;-45
2022/08/16 10:14:40;;;;;;;25.15;6.87;;;;;;;22.37;100.00;100251.49;1692859;84;20872;-45
2022/08/16 10:17:09;;;;;;;32.90;8.50;;;;;;;22.35;100.00;100256.86;1692854;83;21521;-45
2022/08/16 10:19:36;;;;;;;28.70;7.90;;;;;;;22.20;100.00;100256.66;1692661;84;21139;-45
2022/08/16 10:22:03;;;;;;;23.55;7.65;;;;;;;22.03;100.00;100260.48;1692595;84;20951;-45
2022/08/16 10:24:30;;;;;;;16.32;7.12;;;;;;;21.95;100.00;100272.86;1692758;84;20896;-45
2022/08/16 10:26:57;;;;;;;16.20;7.78;;;;;;;21.80;100.00;100262.42;1692682;83;20991;-46
2022/08/16 10:29:25;;;;;;;20.77;8.53;;;;;;;21.59;100.00;100275.70;1692740;84;20915;-45
2022/08/16 10:31:52;;;;;;;14.78;7.72;;;;;;;21.38;100.00;100264.38;1692779;84;21174;-46
2022/08/16 10:34:20;;;;;;;18.65;7.55;;;;;;;21.22;100.00;100265.39;1692686;84;21477;-46
2022/08/16 10:36:47;;;;;;;12.33;6.60;;;;;;;21.12;100.00;100276.17;1692696;84;20954;-46
2022/08/16 10:39:14;;;;;;;17.80;7.33;;;;;;;21.00;100.00;100255.45;1692755;84;20907;-46
2022/08/16 10:41:41;;;;;;;19.20;6.83;;;;;;;20.95;100.00;100262.78;1692756;84;21580;-46
2022/08/16 10:44:08;;;;;;;24.90;7.80;;;;;;;20.90;100.00;100261.79;1692699;84;21287;-46
2022/08/16 10:46:35;;;;;;;34.20;7.87;;;;;;;20.88;100.00;100257.09;1692715;84;20944;-46
2022/08/16 10:49:02;;;;;;;39.03;8.13;;;;;;;20.89;100.00;100249.58;1676913;84;20944;-46
2022/08/16 10:51:30;;;;;;;40.08;8.35;;;;;;;20.92;100.00;100247.20;1672583;85;20983;-46
2022/08/16 10:53:57;;;;;;;30.20;7.35;;;;;;;20.96;100.00;100246.91;1672577;85;20952;-46
2022/08/16 10:56:25;;;;;;;20.62;6.62;;;;;;;21.02;100.00;100246.12;1672594;85;21238;-46
2022/08/16 10:58:56;;;;;;;20.12;7.17;;;;;;;21.07;100.00;100254.55;1672306;85;20972;-46
2022/08/16 11:01:21;;;;;;;24.32;6.20;;;;;;;21.11;100.00;100256.06;1672404;85;20983;-46
2022/08/16 11:03:48;;;;;;;26.27;6.97;;;;;;;21.14;100.00;100258.49;1625156;87;20991;-47
2022/08/16 11:06:15;;;;;;;15.70;6.20;;;;;;;21.18;100.00;100260.43;1672644;84;20944;-46
2022/08/16 11:08:42;;;;;;;20.15;6.45;;;;;;;21.18;100.00;100256.02;1672706;84;21250;-46
2022/08/16 11:11:13;;;;;;;13.72;5.70;;;;;;;21.23;100.00;100257.87;1672653;85;20959;-46
2022/08/16 11:13:40;;;;;;;11.63;5.92;;;;;;;21.20;100.00;100263.34;1672731;85;21470;-46
2022/08/16 11:16:08;;;;;;;15.35;6.40;;;;;;;21.12;100.00;100265.64;1672368;85;20948;-46
2022/08/16 11:18:34;;;;;;;15.53;6.08;;;;;;;21.08;100.00;100257.10;1672686;84;20992;-46
2022/08/16 11:21:01;;;;;;;14.58;6.20;;;;;;;21.15;100.00;100265.44;1672685;85;21218;-46
2022/08/16 11:23:29;;;;;;;17.37;7.22;;;;;;;21.19;100.00;100266.06;1672648;85;20991;-46
2022/08/16 11:25:56;;;;;;;14.10;6.22;;;;;;;21.21;100.00;100262.39;1672428;85;20967;-47
2022/08/16 11:28:23;;;;;;;19.05;7.05;;;;;;;21.25;100.00;100265.19;1672568;85;21000;-47
2022/08/16 11:30:51;;;;;;;20.32;7.87;;;;;;;21.27;100.00;100260.30;1672956;85;20952;-46
2022/08/16 11:33:18;;;;;;;14.73;7.30;;;;;;;21.32;100.00;100263.00;1672755;85;21162;-46
2022/08/16 11:35:45;;;;;;;17.37;7.05;;;;;;;21.38;100.00;100258.63;1672606;85;21000;-46
2022/08/16 11:38:16;;;;;;;15.20;7.00;;;;;;;21.46;100.00;100258.58;1672662;85;20948;-47